createdAt,value
2022-11-18T00:00:57.885Z,16.90
2022-11-18T00:03:24.660Z,17.02
2022-11-18T00:05:56.284Z,17.20
2022-11-18T00:08:24.280Z,17.48
2022-11-18T00:10:51.750Z,17.23
2022-11-18T00:13:37.812Z,16.92
2022-11-18T00:16:07.300Z,16.60
2022-11-18T00:18:34.137Z,16.67
2022-11-18T00:21:06.698Z,16.33
2022-11-18T00:23:33.746Z,16.38
2022-11-18T00:26:09.487Z,15.90
2022-11-18T00:28:36.515Z,16.30
2022-11-18T00:31:12.025Z,15.82
2022-11-18T00:33:39.316Z,16.10
2022-11-18T00:36:11.877Z,15.98
2022-11-18T00:38:39.823Z,15.80
2022-11-18T00:41:13.624Z,15.73
2022-11-18T00:43:40.980Z,16.02
2022-11-18T00:46:10.204Z,16.48
2022-11-18T00:48:37.907Z,15.90
2022-11-18T00:51:22.495Z,16.13
2022-11-18T00:53:49.274Z,16.08
2022-11-18T00:56:16.029Z,16.17
2022-11-18T00:58:42.809Z,16.50
2022-11-18T01:01:09.763Z,15.93
2022-11-18T01:03:36.566Z,15.38
2022-11-18T01:06:03.381Z,15.00
2022-11-18T01:08:30.190Z,15.32
2022-11-18T01:11:16.891Z,15.65
2022-11-18T01:13:43.660Z,15.00
2022-11-18T01:16:10.375Z,15.73
2022-11-18T01:18:37.223Z,16.00
2022-11-18T01:21:04.257Z,15.20
2022-11-18T01:23:31.056Z,15.27
2022-11-18T01:26:07.458Z,15.52
2022-11-18T01:28:34.527Z,15.60
2022-11-18T01:31:09.959Z,15.52
2022-11-18T01:33:36.773Z,15.55
2022-11-18T01:36:04.041Z,15.35
2022-11-18T01:38:30.850Z,14.90
2022-11-18T01:40:57.633Z,15.35
2022-11-18T01:43:24.537Z,15.30
2022-11-18T01:45:53.939Z,15.27
2022-11-18T01:48:23.670Z,15.40
2022-11-18T01:51:16.337Z,15.25
2022-11-18T01:53:51.776Z,15.45
2022-11-18T01:56:23.960Z,15.82
2022-11-18T01:58:56.267Z,15.60
2022-11-18T02:01:23.727Z,15.27
2022-11-18T02:03:53.057Z,15.70
2022-11-18T02:06:20.670Z,14.90
2022-11-18T02:08:48.743Z,14.90
2022-11-18T02:11:34.774Z,14.90
2022-11-18T02:14:04.299Z,14.98
2022-11-18T02:16:52.137Z,15.00
2022-11-18T02:19:24.806Z,14.48
2022-11-18T02:22:08.671Z,14.85
2022-11-18T02:25:06.496Z,14.38
2022-11-18T02:28:05.223Z,13.82
2022-11-18T02:30:44.651Z,14.10
2022-11-18T02:33:16.802Z,14.43
2022-11-18T02:35:57.306Z,14.90
2022-11-18T02:38:36.824Z,15.05
2022-11-18T02:41:09.692Z,14.85
2022-11-18T02:43:52.707Z,15.13
2022-11-18T02:46:26.536Z,14.90
2022-11-18T02:48:54.320Z,14.60
2022-11-18T02:51:26.024Z,14.88
2022-11-18T02:53:57.152Z,14.90
2022-11-18T02:56:26.060Z,15.25
2022-11-18T02:58:52.874Z,15.30
2022-11-18T03:01:31.298Z,15.10
2022-11-18T03:03:58.272Z,14.68
2022-11-18T03:06:31.621Z,14.90
2022-11-18T03:09:07.321Z,14.45
2022-11-18T03:11:59.994Z,15.25
2022-11-18T03:14:56.993Z,14.85
2022-11-18T03:17:31.149Z,14.70
2022-11-18T03:20:20.393Z,14.45
2022-11-18T03:22:52.832Z,14.50
2022-11-18T03:25:42.093Z,14.45
2022-11-18T03:28:19.525Z,14.73
2022-11-18T03:30:54.163Z,14.77
2022-11-18T03:33:26.526Z,14.75
2022-11-18T03:35:54.703Z,15.25
2022-11-18T03:38:29.296Z,14.98
2022-11-18T03:41:03.651Z,15.05
2022-11-18T03:43:37.432Z,15.00
2022-11-18T03:46:10.963Z,14.65
2022-11-18T03:48:48.126Z,15.05
2022-11-18T03:51:18.730Z,14.90
2022-11-18T03:53:54.075Z,14.57
2022-11-18T03:56:29.260Z,14.48
2022-11-18T03:59:22.393Z,14.85
2022-11-18T04:01:57.864Z,14.55
2022-11-18T04:04:27.197Z,13.77
2022-11-18T04:07:10.157Z,14.65
2022-11-18T04:10:13.512Z,15.05
2022-11-18T04:12:50.645Z,15.00
2022-11-18T04:15:17.648Z,14.93
2022-11-18T04:17:44.441Z,15.25
2022-11-18T04:20:18.680Z,15.85
2022-11-18T04:22:45.913Z,16.25
2022-11-18T04:25:13.312Z,16.10
2022-11-18T04:27:40.263Z,16.27
2022-11-18T04:30:08.306Z,16.00
2022-11-18T04:32:35.558Z,15.85
2022-11-18T04:35:02.489Z,16.25
2022-11-18T04:37:29.279Z,16.63
2022-11-18T04:39:56.027Z,16.10
2022-11-18T04:42:22.916Z,16.50
2022-11-18T04:44:49.654Z,16.38
2022-11-18T04:47:16.483Z,16.25
2022-11-18T04:49:43.304Z,15.40
2022-11-18T04:52:10.058Z,15.90
2022-11-18T04:54:36.923Z,15.38
2022-11-18T04:57:04.149Z,15.70
2022-11-18T04:59:30.999Z,15.77
2022-11-18T05:01:59.477Z,15.68
2022-11-18T05:04:30.102Z,16.60
2022-11-18T05:06:57.922Z,16.67
2022-11-18T05:09:30.431Z,17.50
2022-11-18T05:12:17.621Z,17.60
2022-11-18T05:14:49.580Z,16.75
2022-11-18T05:17:17.663Z,16.35
2022-11-18T05:19:44.486Z,16.92
2022-11-18T05:22:11.307Z,18.52
2022-11-18T05:24:38.113Z,17.90
2022-11-18T05:27:04.878Z,17.33
2022-11-18T05:29:31.804Z,17.65
2022-11-18T05:31:58.536Z,17.38
2022-11-18T05:34:25.423Z,17.35
2022-11-18T05:36:52.215Z,15.85
2022-11-18T05:39:19.307Z,15.70
2022-11-18T05:42:05.001Z,16.20
2022-11-18T05:44:31.777Z,16.65
2022-11-18T05:46:58.595Z,16.00
2022-11-18T05:49:25.720Z,16.27
2022-11-18T05:51:52.513Z,16.08
2022-11-18T05:54:21.087Z,16.58
2022-11-18T05:56:48.023Z,16.35
2022-11-18T05:59:15.744Z,16.38
2022-11-18T06:01:55.685Z,16.63
2022-11-18T06:04:39.539Z,16.77
2022-11-18T06:07:32.505Z,17.15
2022-11-18T06:10:05.238Z,16.73
2022-11-18T06:12:37.399Z,17.20
2022-11-18T06:15:12.167Z,17.25
2022-11-18T06:18:02.252Z,18.02
2022-11-18T06:20:29.361Z,17.77
2022-11-18T06:22:58.307Z,17.88
2022-11-18T06:25:29.708Z,17.67
2022-11-18T06:27:59.297Z,17.67
2022-11-18T06:30:26.097Z,17.55
2022-11-18T06:32:52.914Z,18.02
2022-11-18T06:35:19.781Z,17.42
2022-11-18T06:37:47.390Z,18.05
2022-11-18T06:40:14.306Z,17.80
2022-11-18T06:42:59.809Z,16.65
2022-11-18T06:45:26.683Z,17.40
2022-11-18T06:47:57.530Z,17.92
2022-11-18T06:50:24.617Z,18.00
2022-11-18T06:52:51.461Z,18.35
2022-11-18T06:55:18.299Z,18.02
2022-11-18T06:57:45.129Z,18.77
2022-11-18T07:00:12.674Z,19.02
2022-11-18T07:02:39.427Z,19.02
2022-11-18T07:05:06.790Z,19.05
2022-11-18T07:07:41.697Z,19.67
2022-11-18T07:10:09.351Z,19.85
2022-11-18T07:12:36.212Z,20.52
2022-11-18T07:15:03.180Z,21.23
2022-11-18T07:17:31.350Z,22.05
2022-11-18T07:19:58.171Z,25.05
2022-11-18T07:22:25.010Z,21.60
2022-11-18T07:24:51.778Z,20.20
2022-11-18T07:27:18.520Z,20.25
2022-11-18T07:29:45.339Z,19.52
2022-11-18T07:32:12.104Z,20.27
2022-11-18T07:34:38.957Z,23.25
2022-11-18T07:37:05.699Z,23.42
2022-11-18T07:39:32.452Z,23.15
2022-11-18T07:41:59.423Z,25.20
2022-11-18T07:44:26.201Z,27.27
2022-11-18T07:46:52.964Z,28.20
2022-11-18T07:49:20.032Z,24.50
2022-11-18T07:51:46.932Z,23.98
2022-11-18T07:54:16.628Z,23.38
2022-11-18T07:56:43.594Z,24.70
2022-11-18T07:59:10.334Z,22.77
2022-11-18T08:01:37.282Z,22.88
2022-11-18T08:04:05.800Z,21.50
2022-11-18T08:06:34.131Z,22.67
2022-11-18T08:09:01.297Z,22.88
2022-11-18T08:11:28.081Z,23.55
2022-11-18T08:13:54.907Z,22.60
2022-11-18T08:16:23.881Z,26.85
2022-11-18T08:18:51.587Z,25.65
2022-11-18T08:21:20.225Z,26.73
2022-11-18T08:23:55.130Z,24.10
2022-11-18T08:26:22.769Z,24.70
2022-11-18T08:28:49.914Z,24.30
2022-11-18T08:31:22.435Z,27.45
2022-11-18T08:33:49.273Z,27.50
2022-11-18T08:36:20.222Z,28.15
2022-11-18T08:38:47.058Z,27.73
2022-11-18T08:41:20.257Z,28.70
2022-11-18T08:43:47.161Z,27.13
2022-11-18T08:46:13.886Z,32.53
2022-11-18T08:48:40.680Z,28.17
2022-11-18T08:51:11.480Z,27.40
2022-11-18T08:53:38.290Z,28.92
2022-11-18T08:56:05.521Z,26.77
2022-11-18T08:58:32.544Z,25.48
2022-11-18T09:01:04.895Z,30.85
2022-11-18T09:03:32.176Z,30.25
2022-11-18T09:06:14.100Z,31.08
2022-11-18T09:08:41.762Z,28.65
2022-11-18T09:11:21.019Z,30.05
2022-11-18T09:14:32.773Z,30.95
2022-11-18T09:16:35.969Z,32.78
2022-11-18T09:19:24.457Z,28.10
2022-11-18T09:21:50.045Z,28.75
2022-11-18T09:24:17.335Z,25.08
2022-11-18T09:26:44.574Z,28.00
2022-11-18T09:29:14.181Z,26.50
2022-11-18T09:31:40.906Z,26.50
2022-11-18T09:34:10.360Z,25.48
2022-11-18T09:36:37.578Z,24.48
2022-11-18T09:39:04.800Z,24.27
2022-11-18T09:41:50.576Z,28.08
2022-11-18T09:44:42.619Z,27.65
2022-11-18T09:47:12.299Z,26.65
2022-11-18T09:49:42.388Z,25.27
2022-11-18T09:52:22.118Z,30.47
2022-11-18T09:54:49.304Z,28.52
2022-11-18T09:57:20.053Z,24.70
2022-11-18T09:59:46.995Z,27.15
2022-11-18T10:02:13.824Z,26.02
2022-11-18T10:04:40.785Z,28.70
2022-11-18T10:07:20.936Z,25.63
2022-11-18T10:09:51.872Z,23.55
2022-11-18T10:12:27.783Z,22.60
2022-11-18T10:15:06.473Z,22.08
2022-11-18T10:17:43.492Z,26.38
2022-11-18T10:20:28.959Z,25.15
2022-11-18T10:23:05.486Z,26.67
2022-11-18T10:25:32.270Z,24.80
2022-11-18T10:28:14.099Z,25.05
2022-11-18T10:30:41.088Z,33.90
2022-11-18T10:33:23.126Z,29.13
2022-11-18T10:35:50.567Z,40.03
2022-11-18T10:38:18.933Z,37.38
2022-11-18T10:41:01.631Z,33.50
2022-11-18T10:43:44.881Z,27.83
2022-11-18T10:46:39.250Z,30.02
2022-11-18T10:49:08.861Z,30.27
2022-11-18T10:51:43.170Z,26.45
2022-11-18T10:54:22.667Z,23.48
2022-11-18T10:57:11.132Z,30.05
2022-11-18T10:59:47.084Z,31.15
2022-11-18T11:02:19.640Z,28.95
2022-11-18T11:04:49.114Z,32.28
2022-11-18T11:07:35.174Z,27.77
2022-11-18T11:10:04.759Z,26.73
2022-11-18T11:12:47.287Z,26.90
2022-11-18T11:15:19.544Z,28.23
2022-11-18T11:18:11.089Z,25.27
2022-11-18T11:20:38.951Z,28.00
2022-11-18T11:23:22.034Z,26.08
2022-11-18T11:29:19.061Z,23.42
2022-11-18T11:32:11.040Z,25.17
2022-11-18T11:34:55.330Z,28.52
2022-11-18T11:37:24.792Z,27.27
2022-11-18T11:39:51.502Z,25.73
2022-11-18T11:42:24.234Z,26.75
2022-11-18T11:45:19.186Z,24.65
2022-11-18T11:48:23.328Z,25.70
2022-11-18T11:51:03.487Z,29.67
2022-11-18T11:53:41.571Z,32.25
2022-11-18T11:56:25.854Z,30.20
2022-11-18T11:59:11.545Z,32.17
2022-11-18T12:01:47.180Z,32.83
2022-11-18T12:04:29.167Z,28.08
2022-11-18T12:06:58.044Z,29.20
2022-11-18T12:09:34.017Z,26.40
2022-11-18T12:12:36.700Z,27.30
2022-11-18T12:15:31.165Z,30.50
2022-11-18T12:18:09.110Z,34.45
2022-11-18T12:20:40.537Z,31.63
2022-11-18T12:23:10.700Z,29.30
2022-11-18T12:26:10.347Z,26.37
2022-11-18T12:28:43.418Z,27.02
2022-11-18T12:31:19.161Z,25.90
2022-11-18T12:33:48.711Z,24.73
2022-11-18T12:36:36.263Z,23.90
2022-11-18T12:39:26.352Z,23.73
2022-11-18T12:42:11.683Z,21.17
2022-11-18T12:44:40.273Z,21.15
2022-11-18T12:47:14.664Z,22.08
2022-11-18T12:49:44.209Z,21.08
2022-11-18T12:52:29.248Z,20.95
2022-11-18T12:55:01.320Z,20.75
2022-11-18T12:57:33.998Z,20.92
2022-11-18T13:00:29.832Z,21.13
2022-11-18T13:02:59.503Z,20.85
2022-11-18T13:05:32.971Z,20.50
2022-11-18T13:08:14.183Z,19.88
2022-11-18T13:11:13.370Z,20.40
2022-11-18T13:13:41.918Z,21.40
2022-11-18T13:16:42.162Z,21.17
2022-11-18T13:19:09.835Z,19.88
2022-11-18T13:21:55.329Z,21.27
2022-11-18T13:24:23.206Z,22.00
2022-11-18T13:26:57.637Z,22.33
2022-11-18T13:29:44.148Z,24.23
2022-11-18T13:32:27.499Z,23.20
2022-11-18T13:34:57.134Z,22.60
2022-11-18T13:37:34.291Z,24.60
2022-11-18T13:40:01.288Z,23.63
2022-11-18T13:42:31.880Z,22.77
2022-11-18T13:45:03.333Z,23.75
2022-11-18T13:47:45.908Z,24.13
2022-11-18T13:50:15.712Z,22.55
2022-11-18T13:53:08.486Z,22.85
2022-11-18T13:55:44.002Z,23.83
2022-11-18T13:58:19.530Z,23.75
2022-11-18T14:00:58.174Z,23.70
2022-11-18T14:03:30.287Z,22.48
2022-11-18T14:05:58.608Z,22.70
2022-11-18T14:08:31.539Z,22.40
2022-11-18T14:10:58.895Z,23.20
2022-11-18T14:13:27.663Z,23.92
2022-11-18T14:15:57.618Z,23.60
2022-11-18T14:18:38.269Z,22.58
2022-11-18T14:21:06.011Z,24.10
2022-11-18T14:23:37.297Z,21.92
2022-11-18T14:26:06.402Z,22.73
2022-11-18T14:28:37.185Z,21.58
2022-11-18T14:31:21.704Z,22.27
2022-11-18T14:34:13.407Z,21.52
2022-11-18T14:36:40.964Z,21.63
2022-11-18T14:39:34.361Z,20.88
2022-11-18T14:42:01.853Z,20.90
2022-11-18T14:44:28.986Z,22.40
2022-11-18T14:47:00.501Z,21.25
2022-11-18T14:49:30.862Z,22.42
2022-11-18T14:51:57.625Z,21.92
2022-11-18T14:54:27.604Z,21.90
2022-11-18T14:57:05.756Z,20.75
2022-11-18T14:59:32.623Z,22.80
2022-11-18T15:02:06.645Z,22.52
2022-11-18T15:04:33.685Z,22.77
2022-11-18T15:07:00.513Z,22.45
2022-11-18T15:09:27.338Z,27.73
2022-11-18T15:11:54.381Z,25.58
2022-11-18T15:14:21.807Z,24.08
2022-11-18T15:16:48.827Z,24.42
2022-11-18T15:19:16.256Z,24.05
2022-11-18T15:21:45.442Z,24.02
2022-11-18T15:24:12.401Z,25.00
2022-11-18T15:26:41.901Z,27.23
2022-11-18T15:29:24.388Z,26.63
2022-11-18T15:31:51.956Z,28.75
2022-11-18T15:34:20.628Z,28.83
2022-11-18T15:36:47.787Z,31.30
2022-11-18T15:39:14.652Z,30.38
2022-11-18T15:41:43.012Z,29.85
2022-11-18T15:44:10.857Z,30.65
2022-11-18T15:46:37.677Z,32.15
2022-11-18T15:49:04.695Z,29.73
2022-11-18T15:51:33.322Z,31.38
2022-11-18T15:54:00.182Z,32.42
2022-11-18T15:56:31.769Z,31.33
2022-11-18T15:59:07.373Z,32.35
2022-11-18T16:01:39.214Z,33.60
2022-11-18T16:04:08.176Z,31.40
2022-11-18T16:06:35.576Z,32.50
2022-11-18T16:09:02.744Z,30.40
2022-11-18T16:11:48.332Z,32.20
2022-11-18T16:14:18.163Z,33.28
2022-11-18T16:16:47.349Z,29.57
2022-11-18T16:19:16.890Z,34.55
2022-11-18T16:21:47.238Z,34.33
2022-11-18T16:24:17.342Z,31.60
2022-11-18T16:26:44.395Z,31.40
2022-11-18T16:29:12.568Z,35.67
2022-11-18T16:31:43.879Z,33.28
2022-11-18T16:34:22.104Z,35.78
2022-11-18T16:36:57.048Z,34.85
2022-11-18T16:39:26.296Z,36.17
2022-11-18T16:42:03.832Z,36.33
2022-11-18T16:44:35.176Z,35.55
2022-11-18T16:47:02.234Z,36.83
2022-11-18T16:49:29.055Z,35.75
2022-11-18T16:51:56.998Z,35.53
2022-11-18T16:54:31.439Z,34.90
2022-11-18T16:56:59.478Z,36.22
2022-11-18T16:59:28.462Z,36.30
2022-11-18T17:01:56.835Z,36.17
2022-11-18T17:04:25.622Z,34.67
2022-11-18T17:06:53.750Z,35.47
2022-11-18T17:09:23.964Z,34.13
2022-11-18T17:11:52.632Z,34.55
2022-11-18T17:14:22.288Z,29.10
2022-11-18T17:16:50.921Z,34.47
2022-11-18T17:19:21.656Z,32.72
2022-11-18T17:24:19.786Z,33.15
2022-11-18T17:29:15.514Z,33.53
2022-11-18T17:31:42.860Z,33.00
2022-11-18T17:34:12.084Z,34.75
2022-11-18T17:36:39.000Z,34.58
2022-11-18T17:39:05.836Z,35.65
2022-11-18T17:41:51.490Z,35.92
2022-11-18T17:44:19.052Z,36.00
2022-11-18T17:46:47.296Z,36.15
2022-11-18T17:49:18.031Z,36.58
2022-11-18T17:51:48.029Z,38.75
2022-11-18T17:54:15.105Z,40.03
2022-11-18T17:56:42.153Z,38.10
2022-11-18T17:59:08.987Z,38.88
2022-11-18T18:01:35.894Z,40.67
2022-11-18T18:04:03.343Z,41.25
2022-11-18T18:06:30.089Z,39.58
2022-11-18T18:08:58.330Z,38.33
2022-11-18T18:11:26.089Z,38.60
2022-11-18T18:14:11.430Z,37.97
2022-11-18T18:16:47.255Z,39.25
2022-11-18T18:19:20.619Z,39.50
2022-11-18T18:21:48.161Z,37.88
2022-11-18T18:24:17.563Z,37.20
2022-11-18T18:26:44.607Z,35.75
2022-11-18T18:29:12.743Z,39.45
2022-11-18T18:31:39.687Z,40.35
2022-11-18T18:34:06.675Z,38.95
2022-11-18T18:36:34.091Z,38.13
2022-11-18T18:39:02.291Z,38.30
2022-11-18T18:41:29.126Z,38.92
2022-11-18T18:43:56.746Z,40.03
2022-11-18T18:46:36.612Z,40.25
2022-11-18T18:49:12.090Z,40.83
2022-11-18T18:51:41.423Z,43.45
2022-11-18T18:54:11.313Z,42.00
2022-11-18T18:56:41.140Z,41.70
2022-11-18T18:59:08.829Z,44.38
2022-11-18T19:01:36.721Z,42.85
2022-11-18T19:04:06.345Z,41.50
2022-11-18T19:09:27.026Z,41.95
2022-11-18T19:12:12.982Z,42.65
2022-11-18T19:14:39.921Z,43.00
2022-11-18T19:17:11.110Z,42.42
2022-11-18T19:19:59.728Z,42.60
2022-11-18T19:22:29.689Z,43.80
2022-11-18T19:24:56.688Z,36.38
2022-11-18T19:27:23.952Z,43.67
2022-11-18T19:29:50.747Z,44.08
2022-11-18T19:32:17.930Z,43.85
2022-11-18T19:34:44.859Z,43.92
2022-11-18T19:37:12.297Z,41.83
2022-11-18T19:39:39.237Z,42.30
2022-11-18T19:42:06.082Z,39.65
2022-11-18T19:44:33.469Z,41.53
2022-11-18T19:47:00.876Z,40.58
2022-11-18T19:49:28.094Z,40.03
2022-11-18T19:51:55.150Z,39.17
2022-11-18T19:54:22.056Z,38.72
2022-11-18T19:56:48.773Z,37.85
2022-11-18T19:59:16.235Z,38.22
2022-11-18T20:01:44.454Z,36.90
2022-11-18T20:04:12.172Z,38.38
2022-11-18T20:06:40.337Z,38.22
2022-11-18T20:09:08.654Z,39.30
2022-11-18T20:11:36.927Z,40.13
2022-11-18T20:14:04.518Z,39.05
2022-11-18T20:16:33.861Z,38.38
2022-11-18T20:19:08.033Z,39.25
2022-11-18T20:21:39.422Z,38.80
2022-11-18T20:24:07.985Z,39.97
2022-11-18T20:26:39.558Z,42.03
2022-11-18T20:29:09.262Z,42.17
2022-11-18T20:31:37.207Z,40.03
2022-11-18T20:34:05.207Z,40.60
2022-11-18T20:36:34.873Z,38.60
2022-11-18T20:39:06.960Z,39.40
2022-11-18T20:41:36.302Z,41.13
2022-11-18T20:44:04.083Z,41.85
2022-11-18T20:46:31.058Z,39.25
2022-11-18T20:48:57.857Z,40.17
2022-11-18T20:51:26.563Z,38.03
2022-11-18T20:53:55.509Z,41.63
2022-11-18T20:56:26.739Z,41.88
2022-11-18T20:58:54.195Z,40.00
2022-11-18T21:01:23.955Z,40.38
2022-11-18T21:03:53.210Z,39.30
2022-11-18T21:06:22.363Z,40.30
2022-11-18T21:08:54.102Z,38.45
2022-11-18T21:11:20.881Z,37.45
2022-11-18T21:14:06.081Z,36.20
2022-11-18T21:16:33.025Z,34.70
2022-11-18T21:19:00.227Z,36.53
2022-11-18T21:21:46.131Z,34.70
2022-11-18T21:24:24.168Z,35.65
2022-11-18T21:26:54.763Z,35.53
2022-11-18T21:29:23.513Z,35.08
2022-11-18T21:31:50.747Z,34.95
2022-11-18T21:34:18.391Z,33.60
2022-11-18T21:36:50.380Z,35.65
2022-11-18T21:39:21.937Z,36.58
2022-11-18T21:41:54.904Z,35.92
2022-11-18T21:44:22.425Z,35.92
2022-11-18T21:46:49.231Z,35.00
2022-11-18T21:49:16.450Z,35.67
2022-11-18T21:51:44.085Z,32.60
2022-11-18T21:54:12.608Z,33.15
2022-11-18T21:56:39.508Z,31.35
2022-11-18T21:59:07.789Z,32.40
2022-11-18T22:01:35.034Z,32.33
2022-11-18T22:04:04.347Z,31.92
2022-11-18T22:06:33.625Z,31.80
2022-11-18T22:09:01.728Z,31.48
2022-11-18T22:11:28.799Z,32.70
2022-11-18T22:13:55.934Z,30.95
2022-11-18T22:16:24.764Z,31.83
2022-11-18T22:18:58.216Z,31.25
2022-11-18T22:21:28.083Z,29.95
2022-11-18T22:24:00.246Z,29.55
2022-11-18T22:26:27.877Z,29.58
2022-11-18T22:28:57.044Z,30.23
2022-11-18T22:31:25.594Z,28.80
2022-11-18T22:33:53.507Z,27.83
2022-11-18T22:36:22.629Z,28.13
2022-11-18T22:38:49.903Z,27.50
2022-11-18T22:41:39.377Z,28.20
2022-11-18T22:44:08.423Z,27.52
2022-11-18T22:46:37.105Z,26.02
2022-11-18T22:49:05.216Z,26.52
2022-11-18T22:51:32.523Z,25.98
2022-11-18T22:54:30.739Z,25.88
2022-11-18T22:56:46.414Z,26.15
2022-11-18T22:59:13.716Z,26.13
2022-11-18T23:01:40.683Z,25.38
2022-11-18T23:04:07.792Z,25.05
2022-11-18T23:06:34.731Z,24.77
2022-11-18T23:09:01.867Z,23.75
2022-11-18T23:11:47.702Z,23.75
2022-11-18T23:14:14.766Z,23.67
2022-11-18T23:16:43.162Z,23.10
2022-11-18T23:19:12.491Z,23.13
2022-11-18T23:21:40.227Z,23.42
2022-11-18T23:24:07.873Z,24.20
2022-11-18T23:26:34.616Z,24.25
2022-11-18T23:29:01.591Z,24.52
2022-11-18T23:31:29.035Z,24.13
2022-11-18T23:33:57.982Z,23.83
2022-11-18T23:36:25.774Z,24.63
2022-11-18T23:38:54.845Z,23.13
2022-11-18T23:41:22.387Z,22.70
2022-11-18T23:43:49.797Z,22.95
2022-11-18T23:46:18.064Z,22.73
2022-11-18T23:48:46.046Z,23.00
2022-11-18T23:51:21.787Z,23.08
2022-11-18T23:53:53.011Z,23.10
2022-11-18T23:58:49.733Z,22.45
